MMMY

General Mariano Escobedo International Airport

Airport
ICAO code
MMMY
IATA Code
MTY
Summary
ICAO Region
CARSAM
ICAO Territory
Location

Apodaca, Nuevo Leon

Serving
Monterrey
Elevation
1278 ft
Coordinates
25° 46' 43" N , 100° 6' 25" W
KCC
Metar
MMMY 221945Z 11019KT 4SM SKC 38/21 A2973 RMK HZY

Monterrey International Airport, also known as General Mariano Escobedo International Airport, is an international airport located in Apodaca, Nuevo León, Mexico.

Climatology

Warm Semi-arid climate (Köppen climate classification BSh)

Runways

Designator Length Width Surface Rops
16/34 1801 30 ASP Yes/Yes
11/29 3000 45 ASP Yes/Yes

Airport map

Aerial View

SKYbrary Partners:

Safety knowledge contributed by: